Time,TemperatureF,DewpointF,PressureIn,WindDirection,WindDirectionDegrees,WindSpeedMPH,WindSpeedGustMPH,Humidity,HourlyPrecipIn,Conditions,Clouds,dailyrainin,SoftwareType,DateUTC
2013-03-01 00:00:00,58.8,41.2,30.06,West,270,2.5,2.5,52,0.00,,SCT025,0.00,VWS V14.00,2013-03-01 05:00:00,
2013-03-01 00:05:00,58.8,42.2,30.06,West,270,3.1,3.1,54,0.00,,SCT025,0.00,VWS V14.00,2013-03-01 05:05:00,
2013-03-01 00:06:00,58.8,42.2,30.06,West,270,2.9,2.9,54,0.00,,SCT025,0.00,VWS V14.00,2013-03-01 05:06:00,
2013-03-01 00:11:00,58.8,42.2,30.06,West,270,3.4,3.4,54,0.00,,SCT025,0.00,VWS V14.00,2013-03-01 05:11:00,
2013-03-01 00:16:00,58.6,43.0,30.06,West,270,3.8,3.8,56,0.00,,SCT025,0.00,VWS V14.00,2013-03-01 05:16:00,
2013-03-01 00:21:00,58.6,43.0,30.06,WSW,248,1.6,1.6,56,0.00,,SCT025,0.00,VWS V14.00,2013-03-01 05:21:00,
2013-03-01 00:26:00,58.5,42.8,30.06,WSW,248,2.0,2.0,56,0.00,,SCT025,0.00,VWS V14.00,2013-03-01 05:26:00,
2013-03-01 00:31:00,58.5,42.8,30.06,West,270,0.9,0.9,56,0.00,,SCT025,0.00,VWS V14.00,2013-03-01 05:31:00,
2013-03-01 00:36:00,58.5,42.8,30.06,West,270,2.9,2.9,56,0.00,,SCT025,0.00,VWS V14.00,2013-03-01 05:36:00,
2013-03-01 00:41:00,58.3,43.1,30.06,West,270,2.2,2.2,57,0.00,,SCT025,0.00,VWS V14.00,2013-03-01 05:41:00,
2013-03-01 00:46:00,58.1,43.4,30.03,West,270,2.5,2.5,58,0.00,,SCT025,0.00,VWS V14.00,2013-03-01 05:46:00,
2013-03-01 00:51:00,57.9,42.8,30.03,West,270,2.2,2.2,57,0.00,,SCT025,0.00,VWS V14.00,2013-03-01 05:51:00,
2013-03-01 00:56:00,57.9,42.8,30.03,West,270,1.1,1.1,57,0.00,,SCT025,0.00,VWS V14.00,2013-03-01 05:56:00,
2013-03-01 01:01:00,57.7,43.1,30.06,West,270,2.2,2.2,58,0.00,,SCT025,0.00,VWS V14.00,2013-03-01 06:01:00,
2013-03-01 01:06:00,57.7,43.1,30.06,West,270,1.6,1.6,58,0.00,,SCT025,0.00,VWS V14.00,2013-03-01 06:06:00,
2013-03-01 01:11:00,57.6,42.9,30.06,West,270,1.6,1.6,58,0.00,,SCT025,0.00,VWS V14.00,2013-03-01 06:11:00,
2013-03-01 01:16:00,57.6,42.9,30.06,West,270,0.9,0.9,58,0.00,,SCT025,0.00,VWS V14.00,2013-03-01 06:16:00,
2013-03-01 01:21:00,57.6,42.9,30.06,West,270,0.0,0.0,58,0.00,,SCT025,0.00,VWS V14.00,2013-03-01 06:21:00,
2013-03-01 01:26:00,57.6,42.9,30.06,West,270,1.3,1.3,58,0.00,,SCT025,0.00,VWS V14.00,2013-03-01 06:26:00,
2013-03-01 01:31:00,57.6,43.4,30.06,West,270,2.9,2.9,59,0.00,,SCT025,0.00,VWS V14.00,2013-03-01 06:31:00,
2013-03-01 01:36:00,57.6,43.4,30.06,West,270,2.0,2.0,59,0.00,,SCT025,0.00,VWS V14.00,2013-03-01 06:36:00,
2013-03-01 01:41:00,57.6,43.8,30.06,West,270,0.0,0.0,60,0.00,,SCT025,0.00,VWS V14.00,2013-03-01 06:41:00,
2013-03-01 01:46:00,57.6,43.8,30.06,West,270,1.3,1.3,60,0.00,,SCT025,0.00,VWS V14.00,2013-03-01 06:46:00,
2013-03-01 01:50:00,57.4,44.1,30.06,West,270,1.6,1.6,61,0.00,,SCT025,0.00,VWS V14.00,2013-03-01 06:50:00,
2013-03-01 01:55:00,57.4,44.1,30.06,West,270,2.7,2.7,61,0.00,,SCT025,0.00,VWS V14.00,2013-03-01 06:55:00,
2013-03-01 02:00:00,57.4,44.1,30.06,West,270,2.9,2.9,61,0.00,,SCT025,0.00,VWS V14.00,2013-03-01 07:00:00,
2013-03-01 02:05:00,57.4,44.1,30.06,West,270,1.6,1.6,61,0.00,,SCT025,0.00,VWS V14.00,2013-03-01 07:05:00,
2013-03-01 02:10:00,57.4,44.1,30.06,West,270,0.0,0.0,61,0.00,,SCT025,0.00,VWS V14.00,2013-03-01 07:10:00,
2013-03-01 02:15:00,57.4,44.1,30.06,West,270,2.7,2.7,61,0.00,,SCT025,0.00,VWS V14.00,2013-03-01 07:15:00,
2013-03-01 02:20:00,57.4,44.1,30.06,West,270,4.0,4.0,61,0.00,,SCT025,0.00,VWS V14.00,2013-03-01 07:20:00,
2013-03-01 02:25:00,57.4,44.1,30.06,West,270,2.7,2.7,61,0.00,,SCT025,0.00,VWS V14.00,2013-03-01 07:25:00,
2013-03-01 02:30:00,57.4,44.1,30.06,West,270,2.9,2.9,61,0.00,,SCT025,0.00,VWS V14.00,2013-03-01 07:30:00,
2013-03-01 02:35:00,57.4,44.5,30.06,West,270,3.1,3.1,62,0.00,,SCT025,0.00,VWS V14.00,2013-03-01 07:35:00,
2013-03-01 02:40:00,57.4,44.1,30.06,West,270,2.5,2.5,61,0.00,,SCT025,0.00,VWS V14.00,2013-03-01 07:40:00,
2013-03-01 02:45:00,57.2,43.5,30.06,West,270,2.9,2.9,60,0.00,,SCT025,0.00,VWS V14.00,2013-03-01 07:45:00,
2013-03-01 02:50:00,57.2,43.5,30.06,WSW,248,2.0,2.0,60,0.00,,SCT025,0.00,VWS V14.00,2013-03-01 07:50:00,
2013-03-01 02:55:00,57.0,43.7,30.06,West,270,2.5,2.5,61,0.00,,SCT025,0.00,VWS V14.00,2013-03-01 07:55:00,
2013-03-01 03:00:00,56.8,43.5,30.06,West,270,1.1,1.1,61,0.00,,SCT025,0.00,VWS V14.00,2013-03-01 08:00:00,
2013-03-01 03:05:00,56.8,43.1,30.06,West,270,1.6,1.6,60,0.00,,SCT025,0.00,VWS V14.00,2013-03-01 08:05:00,
2013-03-01 03:10:00,56.8,43.5,30.06,West,270,0.9,0.9,61,0.00,,SCT025,0.00,VWS V14.00,2013-03-01 08:10:00,
2013-03-01 03:15:00,56.8,43.5,30.03,West,270,2.0,2.0,61,0.00,,SCT025,0.00,VWS V14.00,2013-03-01 08:15:00,
2013-03-01 03:20:00,56.5,43.2,30.03,West,270,2.5,2.5,61,0.00,,SCT025,0.00,VWS V14.00,2013-03-01 08:20:00,
2013-03-01 03:25:00,56.3,43.5,30.03,West,270,2.5,2.5,62,0.00,,SCT025,0.00,VWS V14.00,2013-03-01 08:25:00,
2013-03-01 03:30:00,56.1,43.3,30.03,West,270,1.3,1.3,62,0.00,,SCT025,0.00,VWS V14.00,2013-03-01 08:30:00,
2013-03-01 03:35:00,56.1,43.7,30.03,West,270,2.5,2.5,63,0.00,,SCT025,0.00,VWS V14.00,2013-03-01 08:35:00,
2013-03-01 03:40:00,56.1,43.7,30.03,West,270,2.7,2.7,63,0.00,,SCT025,0.00,VWS V14.00,2013-03-01 08:40:00,
2013-03-01 03:45:00,56.1,44.1,30.03,West,270,2.5,2.5,64,0.00,,SCT025,0.00,VWS V14.00,2013-03-01 08:45:00,
2013-03-01 03:50:00,55.9,43.5,30.03,West,270,2.7,2.7,63,30.84,,SCT025,30.84,VWS V14.00,2013-03-01 08:50:00,
2013-03-01 03:55:00,55.9,43.5,30.03,West,270,3.1,3.1,63,0.00,,SCT025,0.00,VWS V14.00,2013-03-01 08:55:00,
2013-03-01 04:00:00,55.9,43.5,30.00,WSW,248,2.7,2.7,63,0.00,,SCT025,0.00,VWS V14.00,2013-03-01 09:00:00,
2013-03-01 04:05:00,55.9,43.5,30.00,West,270,2.7,2.7,63,0.00,,SCT025,0.00,VWS V14.00,2013-03-01 09:05:00,
2013-03-01 04:10:00,56.1,43.7,30.00,WNW,292,1.1,1.1,63,0.00,,SCT025,0.00,VWS V14.00,2013-03-01 09:10:00,
2013-03-01 04:15:00,56.1,43.7,30.00,West,270,1.1,1.1,63,0.00,,SCT025,0.00,VWS V14.00,2013-03-01 09:15:00,
2013-03-01 04:20:00,56.1,43.7,30.03,WNW,292,2.5,2.5,63,0.00,,SCT025,0.00,VWS V14.00,2013-03-01 09:20:00,
2013-03-01 04:25:00,56.1,43.7,30.03,WNW,292,2.5,2.5,63,0.00,,SCT025,0.00,VWS V14.00,2013-03-01 09:25:00,
2013-03-01 04:30:00,56.1,43.7,30.00,West,270,0.9,0.9,63,0.00,,SCT025,0.00,VWS V14.00,2013-03-01 09:30:00,
2013-03-01 04:35:00,55.9,43.1,30.00,WSW,248,2.9,2.9,62,0.00,,SCT025,0.00,VWS V14.00,2013-03-01 09:35:00,
2013-03-01 04:40:00,55.9,43.1,30.00,West,270,2.5,2.5,62,0.00,,SCT025,0.00,VWS V14.00,2013-03-01 09:40:00,
2013-03-01 04:45:00,55.9,43.1,30.00,West,270,2.5,2.5,62,0.00,,SCT025,0.00,VWS V14.00,2013-03-01 09:45:00,
2013-03-01 04:50:00,55.9,43.1,30.00,WSW,248,2.5,2.5,62,0.00,,SCT025,0.00,VWS V14.00,2013-03-01 09:50:00,
2013-03-01 04:55:00,55.9,42.7,30.00,West,270,0.9,0.9,61,0.00,,SCT025,0.00,VWS V14.00,2013-03-01 09:55:00,
2013-03-01 05:00:00,55.9,43.1,30.00,West,270,3.4,3.4,62,0.00,,SCT025,0.00,VWS V14.00,2013-03-01 10:00:00,
2013-03-01 05:05:00,55.9,43.1,30.00,West,270,3.6,3.6,62,0.00,,SCT025,0.00,VWS V14.00,2013-03-01 10:05:00,
2013-03-01 05:10:00,55.9,43.1,30.00,West,270,2.7,2.7,62,0.00,,SCT025,0.00,VWS V14.00,2013-03-01 10:10:00,
2013-03-01 05:15:00,55.9,43.1,30.00,West,270,2.0,2.0,62,0.00,,SCT025,0.00,VWS V14.00,2013-03-01 10:15:00,
2013-03-01 05:20:00,55.8,42.5,30.00,WSW,248,0.0,0.0,61,0.00,,SCT025,0.00,VWS V14.00,2013-03-01 10:20:00,
2013-03-01 05:25:00,55.8,43.0,30.00,WSW,248,2.0,2.0,62,0.00,,SCT025,0.00,VWS V14.00,2013-03-01 10:25:00,
2013-03-01 05:30:00,55.8,43.0,30.00,WSW,248,0.0,0.0,62,0.00,,SCT025,0.00,VWS V14.00,2013-03-01 10:30:00,
2013-03-01 05:35:00,55.4,42.2,30.03,West,270,2.5,2.5,61,0.00,,SCT025,0.00,VWS V14.00,2013-03-01 10:35:00,
2013-03-01 05:40:00,55.2,42.4,30.03,West,270,1.1,1.1,62,0.00,,SCT025,0.00,VWS V14.00,2013-03-01 10:40:00,
2013-03-01 05:45:00,55.2,42.4,30.03,West,270,2.2,2.2,62,0.00,,SCT025,0.00,VWS V14.00,2013-03-01 10:45:00,
2013-03-01 05:50:00,55.0,42.3,30.03,West,270,0.0,0.0,62,0.00,,SCT025,0.00,VWS V14.00,2013-03-01 10:50:00,
2013-03-01 05:55:00,54.9,42.1,30.03,West,270,0.0,0.0,62,0.00,,SCT025,0.00,VWS V14.00,2013-03-01 10:55:00,
2013-03-01 06:00:00,54.9,42.5,30.03,West,270,0.0,0.0,63,0.00,,SCT025,0.00,VWS V14.00,2013-03-01 11:00:00,
2013-03-01 06:05:00,54.9,42.5,30.03,West,270,0.0,0.0,63,0.00,,SCT025,0.00,VWS V14.00,2013-03-01 11:05:00,
2013-03-01 06:10:00,54.5,42.2,30.03,West,270,1.6,1.6,63,0.00,,SCT025,0.00,VWS V14.00,2013-03-01 11:10:00,
2013-03-01 06:15:00,54.5,42.2,30.03,West,270,1.1,1.1,63,0.00,,SCT025,0.00,VWS V14.00,2013-03-01 11:15:00,
2013-03-01 06:20:00,54.5,42.6,30.06,West,270,2.5,2.5,64,0.00,,SCT025,0.00,VWS V14.00,2013-03-01 11:20:00,
2013-03-01 06:25:00,54.3,42.8,30.06,West,270,1.6,1.6,65,0.00,,SCT025,0.00,VWS V14.00,2013-03-01 11:25:00,
2013-03-01 06:30:00,54.1,42.7,30.06,West,270,1.3,1.3,65,0.00,,SCT025,0.00,VWS V14.00,2013-03-01 11:30:00,
2013-03-01 06:35:00,54.1,42.7,30.06,West,270,0.0,0.0,65,0.00,,SCT025,0.00,VWS V14.00,2013-03-01 11:35:00,
2013-03-01 06:40:00,54.1,43.0,30.06,West,270,1.3,1.3,66,0.00,,SCT025,0.00,VWS V14.00,2013-03-01 11:40:00,
2013-03-01 06:45:00,54.1,43.0,30.06,WSW,248,1.1,1.1,66,0.00,,SCT025,0.00,VWS V14.00,2013-03-01 11:45:00,
2013-03-01 06:50:00,54.1,43.0,30.06,West,270,2.5,2.5,66,0.00,,SCT025,0.00,VWS V14.00,2013-03-01 11:50:00,
2013-03-01 06:55:00,54.0,43.3,30.06,West,270,2.5,2.5,67,0.00,,SCT025,0.00,VWS V14.00,2013-03-01 11:55:00,
2013-03-01 07:00:00,54.0,43.3,30.03,West,270,1.3,1.3,67,0.00,,SCT025,0.00,VWS V14.00,2013-03-01 12:00:00,
2013-03-01 07:05:00,54.0,43.3,30.03,West,270,1.3,1.3,67,0.00,,SCT025,0.00,VWS V14.00,2013-03-01 12:05:00,
2013-03-01 07:10:00,54.0,43.3,30.03,West,270,4.0,4.0,67,0.00,,SCT025,0.00,VWS V14.00,2013-03-01 12:10:00,
2013-03-01 07:15:00,53.8,43.1,30.03,West,270,1.6,1.6,67,0.00,,SCT025,0.00,VWS V14.00,2013-03-01 12:15:00,
2013-03-01 07:20:00,53.8,42.7,30.06,West,270,3.1,3.1,66,0.00,,SCT025,0.00,VWS V14.00,2013-03-01 12:20:00,
2013-03-01 07:25:00,54.0,42.9,30.06,West,270,2.7,2.7,66,0.00,,SCT025,0.00,VWS V14.00,2013-03-01 12:25:00,
2013-03-01 07:30:00,54.0,42.9,30.06,WNW,292,1.6,1.6,66,0.00,,SCT025,0.00,VWS V14.00,2013-03-01 12:30:00,
2013-03-01 07:35:00,54.0,42.9,30.06,WNW,292,0.0,0.0,66,0.00,,SCT025,0.00,VWS V14.00,2013-03-01 12:35:00,
2013-03-01 07:40:00,54.0,42.1,30.06,West,270,0.0,0.0,64,0.00,,SCT025,0.00,VWS V14.00,2013-03-01 12:40:00,
2013-03-01 07:45:00,54.0,41.7,30.06,West,270,1.3,1.3,63,0.00,,SCT025,0.00,VWS V14.00,2013-03-01 12:45:00,
2013-03-01 07:50:00,54.0,40.4,30.06,WNW,292,3.1,3.1,60,0.00,,SCT025,0.00,VWS V14.00,2013-03-01 12:50:00,
2013-03-01 07:55:00,54.0,40.4,30.06,West,270,0.0,0.0,60,0.00,,SCT025,0.00,VWS V14.00,2013-03-01 12:55:00,
2013-03-01 08:00:00,54.3,39.4,30.06,West,270,2.7,2.7,57,0.00,,SCT025,0.00,VWS V14.00,2013-03-01 13:00:00,
2013-03-01 08:05:00,54.3,38.5,30.06,West,270,1.1,1.1,55,0.00,,SCT025,0.00,VWS V14.00,2013-03-01 13:05:00,
2013-03-01 08:10:00,54.3,37.6,30.06,WNW,292,0.0,0.0,53,0.00,,SCT025,0.00,VWS V14.00,2013-03-01 13:10:00,
2013-03-01 08:15:00,54.5,37.2,30.06,West,270,0.9,0.9,52,0.00,,SCT025,0.00,VWS V14.00,2013-03-01 13:15:00,
2013-03-01 08:20:00,54.5,36.8,30.06,NNW,338,3.6,3.6,51,0.00,,SCT025,0.00,VWS V14.00,2013-03-01 13:20:00,
2013-03-01 08:25:00,54.5,36.8,30.06,WSW,248,1.1,1.1,51,0.00,,SCT025,0.00,VWS V14.00,2013-03-01 13:25:00,
2013-03-01 08:30:00,54.7,36.9,30.06,WNW,292,3.1,3.1,51,0.00,,SCT025,0.00,VWS V14.00,2013-03-01 13:30:00,
2013-03-01 08:35:00,54.7,36.9,30.06,West,270,1.6,1.6,51,0.00,,SCT025,0.00,VWS V14.00,2013-03-01 13:35:00,
2013-03-01 08:40:00,54.9,36.1,91.07,West,270,1.1,1.1,49,30.84,,SCT025,30.84,VWS V14.00,2013-03-01 13:40:00,
2013-03-01 08:45:00,54.9,36.1,30.09,West,270,0.0,0.0,49,0.00,,SCT025,0.00,VWS V14.00,2013-03-01 13:45:00,
2013-03-01 08:50:00,54.9,36.1,30.09,West,270,0.9,0.9,49,0.00,,SCT025,0.00,VWS V14.00,2013-03-01 13:50:00,
2013-03-01 08:55:00,55.6,36.7,30.09,West,270,0.0,0.0,49,0.00,,SCT025,0.00,VWS V14.00,2013-03-01 13:55:00,
2013-03-01 09:00:00,56.1,36.2,30.09,West,270,1.6,1.6,47,0.00,,SCT025,0.00,VWS V14.00,2013-03-01 14:00:00,
2013-03-01 09:05:00,56.7,36.1,30.09,West,270,0.9,0.9,46,0.00,,SCT025,0.00,VWS V14.00,2013-03-01 14:05:00,
2013-03-01 09:10:00,56.7,36.1,30.09,North,0,2.7,2.7,46,0.00,,SCT025,0.00,VWS V14.00,2013-03-01 14:10:00,
2013-03-01 09:15:00,56.8,35.2,30.09,West,270,1.1,1.1,44,0.00,,SCT025,0.00,VWS V14.00,2013-03-01 14:15:00,
2013-03-01 09:20:00,56.8,35.2,30.09,WNW,292,1.1,1.1,44,0.00,,SCT025,0.00,VWS V14.00,2013-03-01 14:20:00,
2013-03-01 09:25:00,57.4,34.5,30.09,WNW,292,3.4,3.4,42,0.00,,SCT025,0.00,VWS V14.00,2013-03-01 14:25:00,
2013-03-01 09:30:00,57.4,34.5,30.09,WSW,248,3.6,3.6,42,0.00,,SCT025,0.00,VWS V14.00,2013-03-01 14:30:00,
2013-03-01 09:35:00,57.6,34.7,30.09,WSW,248,2.5,2.5,42,0.00,,SCT025,0.00,VWS V14.00,2013-03-01 14:35:00,
2013-03-01 09:40:00,57.6,34.7,30.09,West,270,3.8,3.8,42,0.00,,SCT025,0.00,VWS V14.00,2013-03-01 14:40:00,
2013-03-01 09:45:00,57.6,34.1,30.09,WNW,292,2.5,2.5,41,0.00,,SCT025,0.00,VWS V14.00,2013-03-01 14:45:00,
2013-03-01 09:50:00,57.4,33.3,30.09,WNW,292,0.0,0.0,40,0.00,,SCT025,0.00,VWS V14.00,2013-03-01 14:50:00,
2013-03-01 09:55:00,57.4,33.3,30.09,West,270,1.1,1.1,40,0.00,,SCT025,0.00,VWS V14.00,2013-03-01 14:55:00,
2013-03-01 10:00:00,57.4,32.7,30.09,West,270,1.1,1.1,39,0.00,,SCT025,0.00,VWS V14.00,2013-03-01 15:00:00,
2013-03-01 10:05:00,57.6,33.4,30.09,West,270,1.6,1.6,40,0.00,,SCT025,0.00,VWS V14.00,2013-03-01 15:05:00,
2013-03-01 10:09:00,58.5,34.2,30.09,West,270,2.5,2.5,40,0.00,,SCT025,0.00,VWS V14.00,2013-03-01 15:09:00,
2013-03-01 10:14:00,58.5,34.2,30.09,West,270,1.1,1.1,40,0.00,,SCT025,0.00,VWS V14.00,2013-03-01 15:14:00,
2013-03-01 10:19:00,59.0,34.7,30.09,West,270,2.7,2.7,40,0.00,,SCT025,0.00,VWS V14.00,2013-03-01 15:19:00,
2013-03-01 10:24:00,59.7,33.4,61.18,West,270,3.8,3.8,37,30.84,,SCT025,30.84,VWS V14.00,2013-03-01 15:24:00,
2013-03-01 10:29:00,59.9,34.2,30.09,WNW,292,1.1,1.1,38,0.00,,SCT025,0.00,VWS V14.00,2013-03-01 15:29:00,
2013-03-01 10:34:00,60.4,34.7,30.09,West,270,0.9,0.9,38,0.00,,SCT025,0.00,VWS V14.00,2013-03-01 15:34:00,
2013-03-01 10:39:00,60.8,34.4,30.09,West,270,2.0,2.0,37,0.00,,SCT025,0.00,VWS V14.00,2013-03-01 15:39:00,
2013-03-01 10:44:00,61.2,34.0,30.09,West,270,2.9,2.9,36,0.00,,SCT025,0.00,VWS V14.00,2013-03-01 15:44:00,
2013-03-01 10:49:00,61.7,34.5,30.09,WNW,292,1.6,1.6,36,0.00,,SCT025,0.00,VWS V14.00,2013-03-01 15:49:00,
2013-03-01 10:54:00,61.9,34.0,30.09,WSW,248,3.6,3.6,35,0.00,,SCT025,0.00,VWS V14.00,2013-03-01 15:54:00,
2013-03-01 10:59:00,62.2,33.5,30.09,WSW,248,1.6,1.6,34,0.00,,SCT025,0.00,VWS V14.00,2013-03-01 15:59:00,
2013-03-01 11:04:00,62.6,33.9,30.09,West,270,2.2,2.2,34,0.00,,SCT025,0.00,VWS V14.00,2013-03-01 16:04:00,
2013-03-01 11:09:00,62.8,33.3,30.09,WNW,292,1.6,1.6,33,0.00,,SCT025,0.00,VWS V14.00,2013-03-01 16:09:00,
2013-03-01 11:14:00,63.0,33.4,30.09,West,270,2.5,2.5,33,0.00,,SCT025,0.00,VWS V14.00,2013-03-01 16:14:00,
2013-03-01 11:19:00,63.0,33.4,30.09,NW,315,4.0,4.0,33,0.00,,SCT025,0.00,VWS V14.00,2013-03-01 16:19:00,
2013-03-01 11:24:00,63.1,33.6,30.09,West,270,2.0,2.0,33,0.00,,SCT025,0.00,VWS V14.00,2013-03-01 16:24:00,
2013-03-01 11:29:00,63.1,33.6,30.09,West,270,2.0,2.0,33,0.00,,SCT025,0.00,VWS V14.00,2013-03-01 16:29:00,
2013-03-01 11:34:00,63.1,33.6,30.09,WSW,248,0.0,0.0,33,0.00,,SCT025,0.00,VWS V14.00,2013-03-01 16:34:00,
2013-03-01 11:39:00,63.1,33.6,30.09,WSW,248,0.9,0.9,33,0.00,,SCT025,0.00,VWS V14.00,2013-03-01 16:39:00,
2013-03-01 11:44:00,63.7,34.8,30.09,West,270,2.5,2.5,34,0.00,,SCT025,0.00,VWS V14.00,2013-03-01 16:44:00,
2013-03-01 11:49:00,63.5,33.1,30.09,WNW,292,2.0,2.0,32,0.00,,SCT025,0.00,VWS V14.00,2013-03-01 16:49:00,
2013-03-01 11:54:00,63.9,35.0,30.09,West,270,3.8,3.8,34,0.00,,SCT025,0.00,VWS V14.00,2013-03-01 16:54:00,
2013-03-01 11:59:00,63.9,34.2,30.09,West,270,3.1,3.1,33,0.00,,SCT025,0.00,VWS V14.00,2013-03-01 16:59:00,
2013-03-01 12:04:00,63.9,32.7,30.09,WNW,292,5.4,5.4,31,0.00,,SCT025,0.00,VWS V14.00,2013-03-01 17:04:00,
2013-03-01 12:09:00,64.2,32.2,30.09,West,270,2.5,2.5,30,0.00,,SCT025,0.00,VWS V14.00,2013-03-01 17:09:00,
2013-03-01 12:14:00,64.4,32.3,30.06,WSW,248,2.5,2.5,30,0.00,,SCT025,0.00,VWS V14.00,2013-03-01 17:14:00,
2013-03-01 12:19:00,64.8,31.8,30.06,West,270,2.7,2.7,29,0.00,,SCT025,0.00,VWS V14.00,2013-03-01 17:19:00,
2013-03-01 12:24:00,64.8,31.8,30.06,West,270,2.5,2.5,29,0.00,,SCT025,0.00,VWS V14.00,2013-03-01 17:24:00,
2013-03-01 12:29:00,64.8,31.8,30.06,West,270,2.5,2.5,29,0.00,,SCT025,0.00,VWS V14.00,2013-03-01 17:29:00,
2013-03-01 12:34:00,65.1,30.3,30.06,WSW,248,4.3,4.3,27,0.00,,SCT025,0.00,VWS V14.00,2013-03-01 17:34:00,
2013-03-01 12:39:00,64.8,30.0,30.06,West,270,1.3,1.3,27,0.00,,SCT025,0.00,VWS V14.00,2013-03-01 17:39:00,
2013-03-01 12:44:00,64.6,29.9,30.06,North,0,2.5,2.5,27,0.00,,SCT025,0.00,VWS V14.00,2013-03-01 17:44:00,
2013-03-01 12:49:00,64.6,29.0,30.06,West,270,3.6,3.6,26,0.00,,SCT025,0.00,VWS V14.00,2013-03-01 17:49:00,
2013-03-01 12:54:00,64.6,29.9,30.06,WSW,248,2.7,2.7,27,0.00,,SCT025,0.00,VWS V14.00,2013-03-01 17:54:00,
2013-03-01 12:59:00,64.4,27.8,30.06,West,270,4.9,4.9,25,0.00,,SCT025,0.00,VWS V14.00,2013-03-01 17:59:00,
2013-03-01 13:04:00,64.2,28.6,30.06,West,270,2.5,2.5,26,0.00,,SCT025,0.00,VWS V14.00,2013-03-01 18:04:00,
2013-03-01 13:09:00,64.0,27.5,30.06,West,270,3.4,3.4,25,0.00,,SCT025,0.00,VWS V14.00,2013-03-01 18:09:00,
2013-03-01 13:14:00,63.9,27.4,30.06,West,270,3.4,3.4,25,0.00,,SCT025,0.00,VWS V14.00,2013-03-01 18:14:00,
2013-03-01 13:19:00,63.9,27.4,30.06,WSW,248,2.5,2.5,25,0.00,,SCT025,0.00,VWS V14.00,2013-03-01 18:19:00,
2013-03-01 13:24:00,63.7,27.2,30.06,West,270,1.6,1.6,25,0.00,,SCT025,0.00,VWS V14.00,2013-03-01 18:24:00,
2013-03-01 13:29:00,63.7,27.2,30.06,West,270,2.7,2.7,25,0.00,,SCT025,0.00,VWS V14.00,2013-03-01 18:29:00,
2013-03-01 13:34:00,63.7,27.2,30.06,WSW,248,3.8,3.8,25,0.00,,SCT025,0.00,VWS V14.00,2013-03-01 18:34:00,
2013-03-01 13:39:00,63.5,28.0,30.06,WNW,292,2.7,2.7,26,0.00,,SCT025,0.00,VWS V14.00,2013-03-01 18:39:00,
2013-03-01 13:44:00,63.7,27.2,30.06,West,270,4.9,4.9,25,0.00,,SCT025,0.00,VWS V14.00,2013-03-01 18:44:00,
2013-03-01 13:49:00,63.5,26.1,30.06,WSW,248,4.5,4.5,24,0.00,,SCT025,0.00,VWS V14.00,2013-03-01 18:49:00,
2013-03-01 13:54:00,63.5,26.1,30.06,WSW,248,2.9,2.9,24,0.00,,SCT025,0.00,VWS V14.00,2013-03-01 18:54:00,
2013-03-01 13:59:00,63.5,27.1,30.06,WSW,248,3.8,3.8,25,0.00,,SCT025,0.00,VWS V14.00,2013-03-01 18:59:00,
2013-03-01 14:04:00,63.7,27.2,30.06,West,270,0.9,0.9,25,0.00,,SCT025,0.00,VWS V14.00,2013-03-01 19:04:00,
2013-03-01 14:09:00,63.9,27.4,30.06,West,270,4.9,4.9,25,0.00,,SCT025,0.00,VWS V14.00,2013-03-01 19:09:00,
2013-03-01 14:14:00,63.3,26.9,30.06,West,270,3.6,3.6,25,0.00,,SCT025,0.00,VWS V14.00,2013-03-01 19:14:00,
2013-03-01 14:19:00,63.1,26.8,30.06,West,270,3.1,3.1,25,0.00,,SCT025,0.00,VWS V14.00,2013-03-01 19:19:00,
2013-03-01 14:24:00,63.0,26.6,30.06,West,270,3.6,3.6,25,0.00,,SCT025,0.00,VWS V14.00,2013-03-01 19:24:00,
2013-03-01 14:29:00,62.6,26.3,30.06,West,270,0.0,0.0,25,0.00,,SCT025,0.00,VWS V14.00,2013-03-01 19:29:00,
2013-03-01 14:34:00,62.6,26.3,30.06,WSW,248,4.3,4.3,25,0.00,,SCT025,0.00,VWS V14.00,2013-03-01 19:34:00,
2013-03-01 14:39:00,62.2,27.0,30.06,West,270,2.9,2.9,26,0.00,,SCT025,0.00,VWS V14.00,2013-03-01 19:39:00,
2013-03-01 14:44:00,61.9,26.6,30.06,West,270,0.9,0.9,26,0.00,,SCT025,0.00,VWS V14.00,2013-03-01 19:44:00,
2013-03-01 14:49:00,61.5,27.2,30.03,West,270,2.9,2.9,27,0.00,,SCT025,0.00,VWS V14.00,2013-03-01 19:49:00,
2013-03-01 14:54:00,61.3,27.1,30.03,West,270,2.0,2.0,27,0.00,,SCT025,0.00,VWS V14.00,2013-03-01 19:54:00,
2013-03-01 14:59:00,61.0,25.9,30.06,West,270,3.8,3.8,26,0.00,,SCT025,0.00,VWS V14.00,2013-03-01 19:59:00,
2013-03-01 15:04:00,61.0,25.9,30.06,West,270,2.2,2.2,26,0.00,,SCT025,0.00,VWS V14.00,2013-03-01 20:04:00,
2013-03-01 15:09:00,61.0,27.7,30.06,WSW,248,2.9,2.9,28,0.00,,SCT025,0.00,VWS V14.00,2013-03-01 20:09:00,
2013-03-01 15:14:00,60.8,26.6,30.03,West,270,1.3,1.3,27,0.00,,SCT025,0.00,VWS V14.00,2013-03-01 20:14:00,
2013-03-01 15:19:00,60.8,26.6,30.03,West,270,3.4,3.4,27,0.00,,SCT025,0.00,VWS V14.00,2013-03-01 20:19:00,
2013-03-01 15:24:00,60.8,26.6,30.03,West,270,2.7,2.7,27,0.00,,SCT025,0.00,VWS V14.00,2013-03-01 20:24:00,
2013-03-01 15:29:00,60.6,27.4,30.03,West,270,2.9,2.9,28,0.00,,SCT025,0.00,VWS V14.00,2013-03-01 20:29:00,
2013-03-01 15:34:00,60.6,27.4,30.06,West,270,4.3,4.3,28,0.00,,SCT025,0.00,VWS V14.00,2013-03-01 20:34:00,
2013-03-01 15:39:00,60.4,27.2,30.06,West,270,2.7,2.7,28,0.00,,SCT025,0.00,VWS V14.00,2013-03-01 20:39:00,
2013-03-01 15:44:00,60.3,27.9,30.06,WSW,248,1.6,1.6,29,0.00,,SCT025,0.00,VWS V14.00,2013-03-01 20:44:00,
2013-03-01 15:49:00,60.3,27.9,30.03,West,270,2.7,2.7,29,0.00,,SCT025,0.00,VWS V14.00,2013-03-01 20:49:00,
2013-03-01 15:54:00,60.3,27.9,30.03,West,270,3.4,3.4,29,0.00,,SCT025,0.00,VWS V14.00,2013-03-01 20:54:00,
2013-03-01 15:59:00,60.1,27.7,30.03,West,270,2.7,2.7,29,0.00,,SCT025,0.00,VWS V14.00,2013-03-01 20:59:00,
2013-03-01 16:04:00,60.1,27.7,30.06,West,270,2.5,2.5,29,0.00,,SCT025,0.00,VWS V14.00,2013-03-01 21:04:00,
2013-03-01 16:09:00,60.1,27.7,30.06,West,270,2.5,2.5,29,0.00,,SCT025,0.00,VWS V14.00,2013-03-01 21:09:00,
2013-03-01 16:14:00,60.1,27.7,30.06,West,270,0.9,0.9,29,0.00,,SCT025,0.00,VWS V14.00,2013-03-01 21:14:00,
2013-03-01 16:19:00,60.1,28.6,30.06,West,270,2.5,2.5,30,0.00,,SCT025,0.00,VWS V14.00,2013-03-01 21:19:00,
2013-03-01 16:24:00,59.9,28.4,30.06,WSW,248,1.6,1.6,30,0.00,,SCT025,0.00,VWS V14.00,2013-03-01 21:24:00,
2013-03-01 16:29:00,59.9,29.2,30.06,WNW,292,2.0,2.0,31,0.00,,SCT025,0.00,VWS V14.00,2013-03-01 21:29:00,
2013-03-01 16:34:00,59.9,30.0,30.06,West,270,2.0,2.0,32,0.00,,SCT025,0.00,VWS V14.00,2013-03-01 21:34:00,
2013-03-01 16:39:00,59.9,30.0,30.06,West,270,2.0,2.0,32,0.00,,SCT025,0.00,VWS V14.00,2013-03-01 21:39:00,
2013-03-01 16:44:00,59.9,30.0,30.03,West,270,2.0,2.0,32,0.00,,SCT025,0.00,VWS V14.00,2013-03-01 21:44:00,
2013-03-01 16:49:00,59.9,30.8,30.03,West,270,3.1,3.1,33,0.00,,SCT025,0.00,VWS V14.00,2013-03-01 21:49:00,
2013-03-01 16:54:00,59.9,30.0,30.03,West,270,1.6,1.6,32,0.00,,SCT025,0.00,VWS V14.00,2013-03-01 21:54:00,
2013-03-01 16:59:00,59.9,31.5,30.03,West,270,1.3,1.3,34,0.00,,SCT025,0.00,VWS V14.00,2013-03-01 21:59:00,
2013-03-01 17:04:00,59.9,31.5,30.06,West,270,1.6,1.6,34,0.00,,SCT025,0.00,VWS V14.00,2013-03-01 22:04:00,
2013-03-01 17:09:00,59.7,31.3,30.06,WSW,248,2.9,2.9,34,0.00,,SCT025,0.00,VWS V14.00,2013-03-01 22:09:00,
2013-03-01 17:14:00,59.7,31.3,30.06,West,270,2.0,2.0,34,0.00,,SCT025,0.00,VWS V14.00,2013-03-01 22:14:00,
2013-03-01 17:19:00,59.7,31.3,30.06,West,270,2.2,2.2,34,0.00,,SCT025,0.00,VWS V14.00,2013-03-01 22:19:00,
2013-03-01 17:24:00,59.7,31.3,30.06,West,270,2.0,2.0,34,0.00,,SCT025,0.00,VWS V14.00,2013-03-01 22:24:00,
2013-03-01 17:29:00,59.7,32.0,30.06,WSW,248,1.1,1.1,35,0.00,,SCT025,0.00,VWS V14.00,2013-03-01 22:29:00,
2013-03-01 17:33:00,59.7,32.0,30.06,WSW,248,1.1,1.1,35,0.00,,SCT025,0.00,VWS V14.00,2013-03-01 22:33:00,
2013-03-01 17:39:00,59.5,31.9,30.06,WSW,248,0.0,0.0,35,0.00,,SCT025,0.00,VWS V14.00,2013-03-01 22:39:00,
2013-03-01 17:44:00,59.4,31.7,30.06,SW,225,0.0,0.0,35,0.00,,SCT025,0.00,VWS V14.00,2013-03-01 22:44:00,
2013-03-01 17:49:00,59.4,31.7,30.06,West,270,1.6,1.6,35,0.00,,SCT025,0.00,VWS V14.00,2013-03-01 22:49:00,
2013-03-01 17:54:00,59.2,31.6,30.06,SW,225,1.6,1.6,35,0.00,,SCT025,0.00,VWS V14.00,2013-03-01 22:54:00,
2013-03-01 17:59:00,59.0,32.1,30.06,WSW,248,0.0,0.0,36,0.00,,SCT025,0.00,VWS V14.00,2013-03-01 22:59:00,
2013-03-01 18:03:00,59.0,32.1,30.06,WSW,248,0.9,0.9,36,0.00,,SCT025,0.00,VWS V14.00,2013-03-01 23:03:00,
2013-03-01 18:08:00,58.8,32.6,30.06,WSW,248,0.0,0.0,37,0.00,,SCT025,0.00,VWS V14.00,2013-03-01 23:08:00,
2013-03-01 18:13:00,58.8,32.6,30.06,WSW,248,0.0,0.0,37,0.00,,SCT025,0.00,VWS V14.00,2013-03-01 23:13:00,
2013-03-01 18:18:00,58.6,32.5,30.06,SW,225,0.0,0.0,37,0.00,,SCT025,0.00,VWS V14.00,2013-03-01 23:18:00,
2013-03-01 18:23:00,58.6,32.5,30.06,SW,225,0.0,0.0,37,0.00,,SCT025,0.00,VWS V14.00,2013-03-01 23:23:00,
2013-03-01 18:28:00,58.5,33.0,30.06,SW,225,0.0,0.0,38,0.00,,SCT025,0.00,VWS V14.00,2013-03-01 23:28:00,
2013-03-01 18:33:00,58.5,33.0,30.06,SW,225,0.0,0.0,38,0.00,,SCT025,0.00,VWS V14.00,2013-03-01 23:33:00,
2013-03-01 18:38:00,58.3,32.8,30.06,SW,225,0.0,0.0,38,0.00,,SCT025,0.00,VWS V14.00,2013-03-01 23:38:00,
2013-03-01 18:43:00,58.1,32.7,30.06,SW,225,0.0,0.0,38,0.00,,SCT025,0.00,VWS V14.00,2013-03-01 23:43:00,
2013-03-01 18:48:00,58.1,33.3,30.06,SW,225,0.0,0.0,39,0.00,,SCT025,0.00,VWS V14.00,2013-03-01 23:48:00,
2013-03-01 18:53:00,58.1,33.3,30.06,SW,225,0.0,0.0,39,0.00,,SCT025,0.00,VWS V14.00,2013-03-01 23:53:00,
2013-03-01 18:58:00,58.1,33.3,30.06,SW,225,0.0,0.0,39,0.00,,SCT025,0.00,VWS V14.00,2013-03-01 23:58:00,
2013-03-01 19:03:00,57.9,32.5,30.06,SW,225,0.0,0.0,38,0.00,,SCT025,0.00,VWS V14.00,2013-03-02 00:03:00,
2013-03-01 19:08:00,57.9,33.1,30.06,SW,225,0.0,0.0,39,0.00,,SCT025,0.00,VWS V14.00,2013-03-02 00:08:00,
2013-03-01 19:13:00,57.9,33.1,30.06,SW,225,0.0,0.0,39,0.00,,SCT025,0.00,VWS V14.00,2013-03-02 00:13:00,
2013-03-01 19:18:00,57.9,33.1,30.06,SW,225,0.0,0.0,39,0.00,,SCT025,0.00,VWS V14.00,2013-03-02 00:18:00,
2013-03-01 19:23:00,57.7,33.6,30.06,SW,225,0.0,0.0,40,0.00,,SCT025,0.00,VWS V14.00,2013-03-02 00:23:00,
2013-03-01 19:28:00,57.7,33.6,30.06,SW,225,0.0,0.0,40,0.00,,SCT025,0.00,VWS V14.00,2013-03-02 00:28:00,
2013-03-01 19:33:00,57.6,34.7,30.06,SW,225,0.0,0.0,42,0.00,,SCT025,0.00,VWS V14.00,2013-03-02 00:33:00,
2013-03-01 19:38:00,57.6,34.1,30.03,SW,225,1.1,1.1,41,0.00,,SCT025,0.00,VWS V14.00,2013-03-02 00:38:00,
2013-03-01 19:43:00,57.6,34.1,30.03,SW,225,1.1,1.1,41,0.00,,SCT025,0.00,VWS V14.00,2013-03-02 00:43:00,
2013-03-01 19:48:00,57.6,34.1,30.03,SW,225,0.9,0.9,41,0.00,,SCT025,0.00,VWS V14.00,2013-03-02 00:48:00,
2013-03-01 19:53:00,57.6,34.1,30.03,SW,225,0.0,0.0,41,0.00,,SCT025,0.00,VWS V14.00,2013-03-02 00:53:00,
2013-03-01 19:58:00,57.6,34.1,30.03,SW,225,0.0,0.0,41,0.00,,SCT025,0.00,VWS V14.00,2013-03-02 00:58:00,
2013-03-01 20:03:00,57.6,34.1,30.06,SW,225,0.0,0.0,41,0.00,,SCT025,0.00,VWS V14.00,2013-03-02 01:03:00,
2013-03-01 20:08:00,57.6,34.1,30.06,SW,225,0.0,0.0,41,0.00,,SCT025,0.00,VWS V14.00,2013-03-02 01:08:00,
2013-03-01 20:13:00,57.6,34.1,30.06,West,270,0.9,0.9,41,0.00,,SCT025,0.00,VWS V14.00,2013-03-02 01:13:00,
2013-03-01 20:18:00,57.6,33.4,30.06,WSW,248,1.1,1.1,40,0.00,,SCT025,0.00,VWS V14.00,2013-03-02 01:18:00,
2013-03-01 20:23:00,57.6,33.4,30.06,WSW,248,1.1,1.1,40,0.00,,SCT025,0.00,VWS V14.00,2013-03-02 01:23:00,
2013-03-01 20:28:00,57.6,33.4,30.06,West,270,0.0,0.0,40,0.00,,SCT025,0.00,VWS V14.00,2013-03-02 01:28:00,
2013-03-01 20:33:00,57.6,33.4,30.06,WSW,248,0.0,0.0,40,0.00,,SCT025,0.00,VWS V14.00,2013-03-02 01:33:00,
2013-03-01 20:38:00,57.6,33.4,30.06,WSW,248,1.6,1.6,40,0.00,,SCT025,0.00,VWS V14.00,2013-03-02 01:38:00,
2013-03-01 20:43:00,57.6,33.4,30.06,WSW,248,2.2,2.2,40,0.00,,SCT025,0.00,VWS V14.00,2013-03-02 01:43:00,
2013-03-01 20:48:00,57.6,33.4,30.09,WSW,248,2.2,2.2,40,0.00,,SCT025,0.00,VWS V14.00,2013-03-02 01:48:00,
2013-03-01 20:53:00,57.6,33.4,30.09,West,270,3.6,3.6,40,0.00,,SCT025,0.00,VWS V14.00,2013-03-02 01:53:00,
2013-03-01 20:58:00,57.6,34.1,30.09,West,270,2.7,2.7,41,0.00,,SCT025,0.00,VWS V14.00,2013-03-02 01:58:00,
2013-03-01 21:03:00,57.7,34.2,30.09,West,270,3.1,3.1,41,0.00,,SCT025,0.00,VWS V14.00,2013-03-02 02:03:00,
2013-03-01 21:08:00,57.7,33.6,30.09,West,270,2.2,2.2,40,0.00,,SCT025,0.00,VWS V14.00,2013-03-02 02:08:00,
2013-03-01 21:13:00,57.7,33.6,30.09,West,270,2.0,2.0,40,0.00,,SCT025,0.00,VWS V14.00,2013-03-02 02:13:00,
2013-03-01 21:18:00,57.7,33.6,30.09,West,270,1.3,1.3,40,0.00,,SCT025,0.00,VWS V14.00,2013-03-02 02:18:00,
2013-03-01 21:23:00,57.7,33.6,30.09,West,270,3.1,3.1,40,0.00,,SCT025,0.00,VWS V14.00,2013-03-02 02:23:00,
2013-03-01 21:28:00,57.7,33.0,30.09,West,270,2.7,2.7,39,0.00,,SCT025,0.00,VWS V14.00,2013-03-02 02:28:00,
2013-03-01 21:33:00,57.7,33.6,30.09,West,270,3.1,3.1,40,0.00,,SCT025,0.00,VWS V14.00,2013-03-02 02:33:00,
2013-03-01 21:38:00,57.6,32.8,30.09,West,270,3.1,3.1,39,0.00,,SCT025,0.00,VWS V14.00,2013-03-02 02:38:00,
2013-03-01 21:43:00,57.6,32.8,30.09,WSW,248,2.0,2.0,39,0.00,,SCT025,0.00,VWS V14.00,2013-03-02 02:43:00,
2013-03-01 21:48:00,57.6,32.8,30.09,WNW,292,2.9,2.9,39,0.00,,SCT025,0.00,VWS V14.00,2013-03-02 02:48:00,
2013-03-01 21:53:00,57.4,32.7,30.09,West,270,1.1,1.1,39,0.00,,SCT025,0.00,VWS V14.00,2013-03-02 02:53:00,
2013-03-01 21:58:00,57.4,32.0,30.09,West,270,3.4,3.4,38,0.00,,SCT025,0.00,VWS V14.00,2013-03-02 02:58:00,
2013-03-01 22:03:00,57.2,31.8,30.09,West,270,3.6,3.6,38,0.00,,SCT025,0.00,VWS V14.00,2013-03-02 03:03:00,
2013-03-01 22:08:00,57.2,31.8,30.09,West,270,2.9,2.9,38,0.00,,SCT025,0.00,VWS V14.00,2013-03-02 03:08:00,
2013-03-01 22:13:00,57.2,31.8,30.09,WSW,248,2.9,2.9,38,0.00,,SCT025,0.00,VWS V14.00,2013-03-02 03:13:00,
2013-03-01 22:18:00,57.0,31.7,30.09,West,270,3.1,3.1,38,0.00,,SCT025,0.00,VWS V14.00,2013-03-02 03:18:00,
2013-03-01 22:23:00,57.0,31.7,30.09,West,270,3.8,3.8,38,0.00,,SCT025,0.00,VWS V14.00,2013-03-02 03:23:00,
2013-03-01 22:28:00,56.8,31.5,30.09,West,270,2.7,2.7,38,0.00,,SCT025,0.00,VWS V14.00,2013-03-02 03:28:00,
2013-03-01 22:33:00,56.8,31.5,30.09,WSW,248,0.0,0.0,38,0.00,,SCT025,0.00,VWS V14.00,2013-03-02 03:33:00,
2013-03-01 22:38:00,56.8,31.5,30.09,West,270,2.5,2.5,38,0.00,,SCT025,0.00,VWS V14.00,2013-03-02 03:38:00,
2013-03-01 22:43:00,56.7,31.4,30.09,WNW,292,2.9,2.9,38,0.00,,SCT025,0.00,VWS V14.00,2013-03-02 03:43:00,
2013-03-01 22:48:00,56.7,30.7,30.12,West,270,6.5,6.5,37,0.00,,SCT025,0.00,VWS V14.00,2013-03-02 03:48:00,
2013-03-01 22:53:00,56.7,30.7,30.12,West,270,3.6,3.6,37,0.00,,SCT025,0.00,VWS V14.00,2013-03-02 03:53:00,
2013-03-01 22:58:00,56.3,29.7,30.12,WNW,292,2.2,2.2,36,0.00,,SCT025,0.00,VWS V14.00,2013-03-02 03:58:00,
2013-03-01 23:03:00,56.3,29.7,30.12,West,270,3.4,3.4,36,0.00,,SCT025,0.00,VWS V14.00,2013-03-02 04:03:00,
2013-03-01 23:08:00,56.1,29.5,30.12,WNW,292,3.4,3.4,36,0.00,,SCT025,0.00,VWS V14.00,2013-03-02 04:08:00,
2013-03-01 23:13:00,56.1,29.5,30.12,West,270,5.6,5.6,36,0.00,,SCT025,0.00,VWS V14.00,2013-03-02 04:13:00,
2013-03-01 23:18:00,55.9,29.4,30.12,West,270,3.4,3.4,36,0.00,,SCT025,0.00,VWS V14.00,2013-03-02 04:18:00,
2013-03-01 23:23:00,55.9,29.4,30.09,WSW,248,2.7,2.7,36,0.00,,SCT025,0.00,VWS V14.00,2013-03-02 04:23:00,
2013-03-01 23:28:00,55.8,29.2,30.09,West,270,2.7,2.7,36,0.00,,SCT025,0.00,VWS V14.00,2013-03-02 04:28:00,
2013-03-01 23:33:00,55.8,29.9,30.09,West,270,1.6,1.6,37,0.00,,SCT025,0.00,VWS V14.00,2013-03-02 04:33:00,
2013-03-01 23:38:00,55.8,29.9,30.09,WSW,248,3.4,3.4,37,0.00,,SCT025,0.00,VWS V14.00,2013-03-02 04:38:00,
2013-03-01 23:43:00,55.6,29.7,30.09,West,270,2.9,2.9,37,0.00,,SCT025,0.00,VWS V14.00,2013-03-02 04:43:00,
2013-03-01 23:48:00,55.6,29.7,30.09,WSW,248,2.7,2.7,37,0.00,,SCT025,0.00,VWS V14.00,2013-03-02 04:48:00,
2013-03-01 23:53:00,55.6,29.7,30.09,West,270,3.6,3.6,37,0.00,,SCT025,0.00,VWS V14.00,2013-03-02 04:53:00,
2013-03-01 23:58:00,55.4,30.2,30.09,WSW,248,4.0,4.0,38,0.00,,SCT025,0.00,VWS V14.00,2013-03-02 04:58:00,